Time,TemperatureF,DewpointF,PressureIn,WindDirection,WindDirectionDegrees,WindSpeedMPH,WindSpeedGustMPH,Humidity,HourlyPrecipIn,Conditions,Clouds,dailyrainin,SolarRadiationWatts/m^2,SoftwareType,DateUTC
2013-01-25 00:10:00,53.5,52.0,30.19,NW,311,2.0,5.0,94,0.00,,,0.01,0,weatherlink.com 1.10,2013-01-25 08:10:00,
2013-01-25 00:25:00,53.0,52.0,30.19,NNW,345,0.0,1.0,96,0.00,,,0.01,0,weatherlink.com 1.10,2013-01-25 08:25:00,
2013-01-25 00:39:00,53.1,52.0,30.19,NNW,345,0.0,1.0,96,0.00,,,0.01,0,weatherlink.com 1.10,2013-01-25 08:39:00,
2013-01-25 00:54:00,53.1,52.0,30.19,NNW,345,1.0,2.0,97,0.00,,,0.00,0,weatherlink.com 1.10,2013-01-25 08:54:00,
2013-01-25 01:09:00,53.6,53.0,30.18,East,92,4.0,5.0,97,0.00,,,0.00,0,weatherlink.com 1.10,2013-01-25 09:09:00,
2013-01-25 01:24:00,52.6,52.0,30.19,ESE,107,1.0,4.0,97,0.00,,,0.00,0,weatherlink.com 1.10,2013-01-25 09:24:00,
2013-01-25 01:40:00,53.0,52.0,30.18,ENE,74,6.0,6.0,97,0.00,,,0.00,0,weatherlink.com 1.10,2013-01-25 09:40:00,
2013-01-25 01:55:00,52.9,52.0,30.18,ENE,60,0.0,2.0,96,0.00,,,0.00,0,weatherlink.com 1.10,2013-01-25 09:55:00,
2013-01-25 02:10:00,52.1,51.0,30.18,ENE,61,1.0,2.0,97,0.00,,,0.00,0,weatherlink.com 1.10,2013-01-25 10:10:00,
2013-01-25 02:25:00,52.1,51.0,30.18,ENE,78,0.0,2.0,97,0.00,,,0.00,0,weatherlink.com 1.10,2013-01-25 10:25:00,
2013-01-25 02:41:00,52.0,51.0,30.18,East,89,5.0,6.0,97,0.00,,,0.00,0,weatherlink.com 1.10,2013-01-25 10:41:00,
2013-01-25 02:55:00,53.5,53.0,30.18,East,95,1.0,6.0,97,0.00,,,0.00,0,weatherlink.com 1.10,2013-01-25 10:55:00,
2013-01-25 03:11:00,51.8,51.0,30.18,NE,53,2.0,3.0,96,0.00,,,0.00,0,weatherlink.com 1.10,2013-01-25 11:11:00,
2013-01-25 03:25:00,52.2,51.0,30.18,NE,39,0.0,2.0,97,0.00,,,0.00,0,weatherlink.com 1.10,2013-01-25 11:25:00,
2013-01-25 03:41:00,51.9,51.0,30.18,NW,315,0.0,5.0,97,0.00,,,0.00,0,weatherlink.com 1.10,2013-01-25 11:41:00,
2013-01-25 03:56:00,51.9,51.0,30.18,North,11,4.0,6.0,97,0.00,,,0.00,0,weatherlink.com 1.10,2013-01-25 11:56:00,
2013-01-25 04:12:00,52.0,51.0,30.18,North,11,2.0,4.0,97,0.00,,,0.00,0,weatherlink.com 1.10,2013-01-25 12:12:00,
2013-01-25 04:26:00,52.2,51.0,30.17,North,355,4.0,7.0,97,0.00,,,0.00,0,weatherlink.com 1.10,2013-01-25 12:26:00,
2013-01-25 04:42:00,52.7,52.0,30.18,North,360,4.0,8.0,98,0.00,,,0.00,0,weatherlink.com 1.10,2013-01-25 12:42:00,
2013-01-25 04:56:00,52.8,52.0,30.17,NE,50,5.0,8.0,97,0.00,,,0.00,0,weatherlink.com 1.10,2013-01-25 12:56:00,
2013-01-25 05:12:00,52.8,52.0,30.17,NNE,21,2.0,6.0,97,0.00,,,0.00,0,weatherlink.com 1.10,2013-01-25 13:12:00,
2013-01-25 05:27:00,52.8,52.0,30.17,NNE,24,1.0,2.0,97,0.00,,,0.00,0,weatherlink.com 1.10,2013-01-25 13:27:00,
2013-01-25 05:41:00,53.1,52.0,30.16,ENE,78,1.0,3.0,97,0.00,,,0.00,0,weatherlink.com 1.10,2013-01-25 13:41:00,
2013-01-25 05:56:00,52.1,51.0,30.16,SW,226,2.0,6.0,97,0.00,,,0.00,0,weatherlink.com 1.10,2013-01-25 13:56:00,
2013-01-25 06:13:00,51.8,51.0,30.17,SSW,209,0.0,2.0,97,0.00,,,0.00,0,weatherlink.com 1.10,2013-01-25 14:13:00,
2013-01-25 06:27:00,51.3,51.0,30.16,ENE,78,1.0,4.0,97,0.00,,,0.00,0,weatherlink.com 1.10,2013-01-25 14:27:00,
2013-01-25 06:42:00,50.5,50.0,30.17,NE,40,0.0,4.0,97,0.00,,,0.00,0,weatherlink.com 1.10,2013-01-25 14:42:00,
2013-01-25 06:58:00,51.3,51.0,30.17,NNW,342,0.0,2.0,98,0.00,,,0.00,0,weatherlink.com 1.10,2013-01-25 14:58:00,
2013-01-25 07:13:00,51.7,51.0,30.16,NNE,30,0.0,4.0,98,0.00,,,0.00,0,weatherlink.com 1.10,2013-01-25 15:13:00,
2013-01-25 07:27:00,52.1,52.0,30.17,West,273,2.0,7.0,98,0.00,,,0.00,9,weatherlink.com 1.10,2013-01-25 15:27:00,
2013-01-25 07:42:00,52.6,52.0,30.17,ENE,59,1.0,7.0,98,0.00,,,0.00,28,weatherlink.com 1.10,2013-01-25 15:42:00,
2013-01-25 07:57:00,53.3,53.0,30.16,East,94,2.0,6.0,98,0.00,,,0.00,47,weatherlink.com 1.10,2013-01-25 15:57:00,
2013-01-25 08:12:00,52.9,52.0,30.16,WSW,246,0.0,6.0,97,0.00,,,0.00,49,weatherlink.com 1.10,2013-01-25 16:12:00,
2013-01-25 08:28:00,53.9,53.0,30.16,NE,46,0.0,4.0,97,0.00,,,0.00,186,weatherlink.com 1.10,2013-01-25 16:28:00,
2013-01-25 08:43:00,55.2,54.0,30.16,ENE,57,1.0,6.0,95,0.00,,,0.00,267,weatherlink.com 1.10,2013-01-25 16:43:00,
2013-01-25 08:59:00,55.7,53.0,30.16,SE,133,2.0,5.0,91,0.00,,,0.00,125,weatherlink.com 1.10,2013-01-25 16:59:00,
2013-01-25 09:13:00,55.6,54.0,30.16,SE,142,0.0,4.0,94,0.00,,,0.00,301,weatherlink.com 1.10,2013-01-25 17:13:00,
2013-01-25 09:28:00,56.1,54.0,30.16,SW,226,1.0,5.0,91,0.00,,,0.00,378,weatherlink.com 1.10,2013-01-25 17:28:00,
2013-01-25 09:43:00,55.9,54.0,30.16,South,180,0.0,6.0,93,0.00,,,0.00,432,weatherlink.com 1.10,2013-01-25 17:43:00,
2013-01-25 09:59:00,57.0,54.0,30.16,SSW,213,5.0,5.0,90,0.00,,,0.00,392,weatherlink.com 1.10,2013-01-25 17:59:00,
2013-01-25 10:15:00,57.2,55.0,30.17,South,189,2.0,5.0,92,0.00,,,0.00,390,weatherlink.com 1.10,2013-01-25 18:15:00,
2013-01-25 10:29:00,57.8,55.0,30.17,SW,215,2.0,3.0,91,0.00,,,0.00,301,weatherlink.com 1.10,2013-01-25 18:29:00,
2013-01-25 10:45:00,58.1,56.0,30.16,WSW,246,8.0,8.0,92,0.00,,,0.00,316,weatherlink.com 1.10,2013-01-25 18:45:00,
2013-01-25 11:00:00,59.2,56.0,30.15,WNW,296,2.0,4.0,90,0.00,,,0.00,329,weatherlink.com 1.10,2013-01-25 19:00:00,
2013-01-25 11:14:00,59.9,56.0,30.15,West,267,2.0,4.0,88,0.00,,,0.00,619,weatherlink.com 1.10,2013-01-25 19:14:00,
2013-01-25 11:30:00,61.1,57.0,30.15,West,267,4.0,5.0,87,0.00,,,0.00,359,weatherlink.com 1.10,2013-01-25 19:30:00,
2013-01-25 11:44:00,61.7,58.0,30.14,West,281,8.0,9.0,86,0.00,,,0.00,584,weatherlink.com 1.10,2013-01-25 19:44:00,
2013-01-25 11:59:00,61.3,57.0,30.13,West,277,6.0,10.0,84,0.00,,,0.00,577,weatherlink.com 1.10,2013-01-25 19:59:00,
2013-01-25 12:15:00,61.4,57.0,30.12,WNW,286,6.0,11.0,84,0.00,,,0.00,454,weatherlink.com 1.10,2013-01-25 20:15:00,
2013-01-25 12:31:00,62.4,57.0,30.12,NW,321,6.0,13.0,83,0.00,,,0.00,561,weatherlink.com 1.10,2013-01-25 20:31:00,
2013-01-25 12:45:00,63.1,57.0,30.11,WNW,296,8.0,11.0,81,0.00,,,0.00,538,weatherlink.com 1.10,2013-01-25 20:45:00,
2013-01-25 13:01:00,61.1,56.0,30.11,NW,307,6.0,13.0,83,0.00,,,0.00,327,weatherlink.com 1.10,2013-01-25 21:01:00,
2013-01-25 13:15:00,60.4,57.0,30.10,NNW,332,5.0,8.0,87,0.00,,,0.00,302,weatherlink.com 1.10,2013-01-25 21:15:00,
2013-01-25 13:31:00,58.7,55.0,30.11,WNW,284,7.0,13.0,87,0.00,,,0.00,257,weatherlink.com 1.10,2013-01-25 21:31:00,
2013-01-25 13:45:00,58.4,56.0,30.11,NW,321,6.0,8.0,90,0.00,,,0.00,269,weatherlink.com 1.10,2013-01-25 21:45:00,
2013-01-25 14:00:00,58.7,56.0,30.10,WNW,286,2.0,8.0,89,0.00,,,0.00,288,weatherlink.com 1.10,2013-01-25 22:00:00,
2013-01-25 14:15:00,57.6,55.0,30.10,NW,312,6.0,12.0,90,0.00,,,0.00,221,weatherlink.com 1.10,2013-01-25 22:15:00,
2013-01-25 14:31:00,58.6,56.0,30.09,NW,304,5.0,8.0,91,0.00,,,0.00,272,weatherlink.com 1.10,2013-01-25 22:31:00,
2013-01-25 14:47:00,58.8,56.0,30.09,WNW,302,3.0,9.0,89,0.00,,,0.00,229,weatherlink.com 1.10,2013-01-25 22:47:00,
2013-01-25 15:01:00,59.6,56.0,30.09,West,280,2.0,5.0,88,0.00,,,0.00,450,weatherlink.com 1.10,2013-01-25 23:01:00,
2013-01-25 15:16:00,57.7,55.0,30.09,West,277,2.0,4.0,89,0.00,,,0.00,192,weatherlink.com 1.10,2013-01-25 23:16:00,
2013-01-25 15:31:00,56.8,54.0,30.08,West,277,2.0,2.0,91,0.00,,,0.00,107,weatherlink.com 1.10,2013-01-25 23:31:00,
2013-01-25 15:47:00,56.4,54.0,30.07,West,276,4.0,5.0,92,0.00,,,0.00,111,weatherlink.com 1.10,2013-01-25 23:47:00,
2013-01-25 16:02:00,56.3,54.0,30.07,WNW,301,1.0,6.0,93,0.00,,,0.00,146,weatherlink.com 1.10,2013-01-26 00:02:00,
2013-01-25 16:16:00,55.3,53.0,30.06,WNW,294,4.0,7.0,92,0.00,,,0.00,86,weatherlink.com 1.10,2013-01-26 00:16:00,
2013-01-25 16:31:00,55.0,53.0,30.06,NW,304,4.0,6.0,94,0.00,,,0.00,49,weatherlink.com 1.10,2013-01-26 00:31:00,
2013-01-25 16:48:00,54.9,54.0,30.06,WNW,297,0.0,4.0,95,0.00,,,0.00,25,weatherlink.com 1.10,2013-01-26 00:48:00,
2013-01-25 17:03:00,54.1,53.0,30.05,North,355,1.0,5.0,95,0.00,,,0.00,12,weatherlink.com 1.10,2013-01-26 01:03:00,
2013-01-25 17:18:00,54.4,53.0,30.05,NW,318,1.0,5.0,96,0.00,,,0.00,5,weatherlink.com 1.10,2013-01-26 01:18:00,
2013-01-25 17:32:00,54.0,53.0,30.06,NNW,336,0.0,4.0,96,0.00,,,0.00,0,weatherlink.com 1.10,2013-01-26 01:32:00,
2013-01-25 17:47:00,53.6,53.0,30.06,North,355,0.0,3.0,96,0.00,,,0.00,0,weatherlink.com 1.10,2013-01-26 01:47:00,
2013-01-25 18:03:00,53.7,53.0,30.07,NNW,336,7.0,13.0,96,0.00,,,0.00,0,weatherlink.com 1.10,2013-01-26 02:03:00,
2013-01-25 18:17:00,53.6,53.0,30.07,West,271,8.0,8.0,96,0.00,,,0.00,0,weatherlink.com 1.10,2013-01-26 02:17:00,
2013-01-25 18:47:00,53.5,52.0,30.08,NW,306,2.0,10.0,96,0.00,,,0.00,0,weatherlink.com 1.10,2013-01-26 02:47:00,
2013-01-25 19:02:00,53.2,52.0,30.08,WNW,296,0.0,7.0,97,0.00,,,0.00,0,weatherlink.com 1.10,2013-01-26 03:02:00,
2013-01-25 19:18:00,53.0,52.0,30.07,West,280,6.0,11.0,97,0.00,,,0.00,0,weatherlink.com 1.10,2013-01-26 03:18:00,
2013-01-25 19:33:00,53.0,52.0,30.07,WNW,284,0.0,6.0,97,0.00,,,0.00,0,weatherlink.com 1.10,2013-01-26 03:33:00,
2013-01-25 19:48:00,52.5,52.0,30.07,North,355,1.0,9.0,97,0.00,,,0.00,0,weatherlink.com 1.10,2013-01-26 03:48:00,
2013-01-25 20:03:00,52.7,52.0,30.07,NW,313,2.0,5.0,97,0.00,,,0.00,0,weatherlink.com 1.10,2013-01-26 04:03:00,
2013-01-25 20:18:00,52.4,52.0,30.07,NW,326,2.0,5.0,97,0.00,,,0.00,0,weatherlink.com 1.10,2013-01-26 04:18:00,
2013-01-25 20:33:00,52.4,52.0,30.07,NNW,340,0.0,0.0,97,0.00,,,0.00,0,weatherlink.com 1.10,2013-01-26 04:33:00,
2013-01-25 20:48:00,51.5,51.0,30.07,NNW,340,0.0,1.0,97,0.00,,,0.00,0,weatherlink.com 1.10,2013-01-26 04:48:00,
2013-01-25 21:04:00,51.7,51.0,30.08,NNW,340,0.0,1.0,98,0.00,,,0.00,0,weatherlink.com 1.10,2013-01-26 05:04:00,
2013-01-25 21:18:00,51.4,51.0,30.07,North,9,4.0,6.0,98,0.00,,,0.00,0,weatherlink.com 1.10,2013-01-26 05:18:00,
2013-01-25 21:34:00,51.3,51.0,30.07,North,9,1.0,5.0,98,0.00,,,0.00,0,weatherlink.com 1.10,2013-01-26 05:34:00,
2013-01-25 21:49:00,51.6,51.0,30.08,North,360,0.0,5.0,98,0.00,,,0.00,0,weatherlink.com 1.10,2013-01-26 05:49:00,
2013-01-25 22:04:00,51.6,51.0,30.08,NNW,348,0.0,4.0,98,0.00,,,0.00,0,weatherlink.com 1.10,2013-01-26 06:04:00,
2013-01-25 22:20:00,51.4,51.0,30.08,NNW,348,0.0,0.0,98,0.00,,,0.00,0,weatherlink.com 1.10,2013-01-26 06:20:00,
2013-01-25 22:35:00,51.7,51.0,30.08,NNW,348,0.0,2.0,98,0.00,,,0.00,0,weatherlink.com 1.10,2013-01-26 06:35:00,
2013-01-25 22:49:00,51.1,51.0,30.08,NNW,329,1.0,1.0,98,0.00,,,0.00,0,weatherlink.com 1.10,2013-01-26 06:49:00,
2013-01-25 23:04:00,50.9,50.0,30.08,NNW,329,0.0,0.0,98,0.00,,,0.00,0,weatherlink.com 1.10,2013-01-26 07:04:00,
2013-01-25 23:19:00,50.4,50.0,30.08,NNW,329,0.0,0.0,98,0.00,,,0.00,0,weatherlink.com 1.10,2013-01-26 07:19:00,
2013-01-25 23:35:00,50.4,50.0,30.08,NNW,329,0.0,2.0,98,0.00,,,0.00,0,weatherlink.com 1.10,2013-01-26 07:35:00,
2013-01-25 23:50:00,50.8,50.0,30.08,NNW,329,0.0,0.0,98,0.00,,,0.00,0,weatherlink.com 1.10,2013-01-26 07:50:00,